Terminal Aerodrome Forecast
Issued by NWS Paducah, KY

Home | Current Version | Previous Version | Text Only | Print | Product List | Glossary On
Versions: 1 2 3 4 5 6 7 8 9 10 11 12 13 14 15
000
FTUS43 KPAH 191736
TAFPAH
TAF
KPAH 191736Z 1918/2018 21008KT P6SM VCSH BKN060
     FM191900 20009KT P6SM SCT040 BKN250
     FM192300 16005KT P6SM SCT040 BKN250
     FM201100 26014G22KT 6SM -SHRA VCTS BKN035CB
     FM201500 18007KT P6SM SCT050 BKN250=

USA.gov is the U.S. government's official web portal to all federal, state and local government web resources and services.